Time;durP1;ratioP1;P1;durP2;ratioP2;P2;SDS_P1;SDS_P2;PMS_P1;PMS_P2;Temp;Humidity;BMP_temperature;BMP_pressure;BME280_temperature;BME280_humidity;BME280_pressure;Samples;Min_cycle;Max_cycle;Signal;HPM_P1;HPM_P2
2023/08/26 00:01:50;;;;;;;10.43;8.45;;;;;;;20.49;100.00;96397.56;5093140;28;20465;-66
2023/08/26 00:04:16;;;;;;;10.23;9.27;;;;;;;20.52;100.00;96391.84;5092889;28;20050;-67
2023/08/26 00:06:41;;;;;;;9.75;9.02;;;;;;;20.52;100.00;96393.66;5099077;28;20066;-67
2023/08/26 00:09:06;;;;;;;9.88;8.98;;;;;;;20.48;100.00;96395.91;5097645;28;20023;-67
2023/08/26 00:11:32;;;;;;;9.20;8.40;;;;;;;20.43;100.00;96388.44;5096494;28;20589;-66
2023/08/26 00:13:57;;;;;;;10.73;8.07;;;;;;;20.38;100.00;96372.13;5076138;28;20038;-66
2023/08/26 00:16:22;;;;;;;10.10;7.50;;;;;;;20.33;100.00;96367.34;5093934;28;20035;-66
2023/08/26 00:18:49;;;;;;;8.88;8.07;;;;;;;20.33;100.00;96369.16;5096059;28;20063;-67
2023/08/26 00:21:16;;;;;;;10.60;9.10;;;;;;;20.33;100.00;96366.50;5100692;28;20523;-66
2023/08/26 00:23:42;;;;;;;9.85;8.75;;;;;;;20.44;100.00;96357.16;5097148;28;20039;-66
2023/08/26 00:26:11;;;;;;;10.57;9.60;;;;;;;20.45;100.00;96359.66;5118707;27;20023;-66
2023/08/26 00:28:36;;;;;;;9.95;9.10;;;;;;;20.33;100.00;96356.66;5095720;28;20648;-66
2023/08/26 00:31:02;;;;;;;11.65;9.75;;;;;;;20.26;100.00;96353.06;5097575;28;20541;-66
2023/08/26 00:33:27;;;;;;;10.40;9.45;;;;;;;20.19;100.00;96344.13;5111489;27;20035;-66
2023/08/26 00:35:53;;;;;;;8.95;8.23;;;;;;;20.24;100.00;96343.56;5115732;28;20448;-67
2023/08/26 00:38:18;;;;;;;10.40;9.45;;;;;;;20.27;100.00;96335.16;5105599;28;20032;-66
2023/08/26 00:40:44;;;;;;;10.50;9.32;;;;;;;20.29;100.00;96342.00;5109375;28;20106;-66
2023/08/26 00:43:09;;;;;;;9.55;8.75;;;;;;;20.30;100.00;96335.63;5112719;27;20020;-66
2023/08/26 00:45:44;;;;;;;10.38;9.20;;;;;;;20.26;100.00;96329.00;5096610;28;20020;-67
2023/08/26 00:48:11;;;;;;;10.60;9.35;;;;;;;20.25;100.00;96329.19;5094987;28;20028;-67
2023/08/26 00:50:39;;;;;;;10.15;9.25;;;;;;;20.21;100.00;96328.72;5095948;28;20032;-66
2023/08/26 00:53:06;;;;;;;10.20;9.30;;;;;;;20.21;100.00;96341.28;5096210;28;20027;-67
2023/08/26 00:55:32;;;;;;;9.77;8.88;;;;;;;20.19;100.00;96341.44;5104560;28;20061;-66
2023/08/26 00:57:58;;;;;;;8.80;7.93;;;;;;;20.18;100.00;96339.78;5096492;28;20020;-66
2023/08/26 01:00:25;;;;;;;9.80;8.93;;;;;;;20.18;100.00;96337.97;5096191;28;20101;-66
2023/08/26 01:02:50;;;;;;;9.32;8.52;;;;;;;20.17;100.00;96343.47;5096298;28;20032;-66
2023/08/26 01:05:16;;;;;;;8.95;8.15;;;;;;;20.18;100.00;96348.66;5095847;28;20115;-67
2023/08/26 01:07:44;;;;;;;9.25;8.35;;;;;;;20.16;100.00;96358.69;5095540;28;20061;-67
2023/08/26 01:10:10;;;;;;;8.90;8.02;;;;;;;20.15;100.00;96358.88;5104109;28;20038;-67
2023/08/26 01:13:00;;;;;;;9.45;8.52;;;;;;;20.10;100.00;96364.78;5102389;28;20088;-67
2023/08/26 01:15:28;;;;;;;10.15;9.07;;;;;;;20.02;100.00;96371.06;5103793;28;20031;-67
2023/08/26 01:17:55;;;;;;;8.88;8.07;;;;;;;20.02;100.00;96365.72;5099562;28;20028;-66
2023/08/26 01:20:23;;;;;;;10.50;9.52;;;;;;;20.07;100.00;96359.00;5095770;28;20036;-66
2023/08/26 01:22:51;;;;;;;9.65;8.57;;;;;;;20.09;100.00;96335.56;5096717;28;20086;-67
2023/08/26 01:25:17;;;;;;;9.48;8.57;;;;;;;20.06;100.00;96317.25;5099752;28;20031;-67
2023/08/26 01:27:43;;;;;;;8.35;7.65;;;;;;;19.94;100.00;96308.88;5105430;27;20028;-67
2023/08/26 01:30:10;;;;;;;8.48;7.78;;;;;;;19.88;100.00;96305.06;5095460;28;20059;-66
2023/08/26 01:32:39;;;;;;;9.23;8.32;;;;;;;19.79;100.00;96307.00;5094867;28;20107;-66
2023/08/26 01:35:09;;;;;;;9.68;8.80;;;;;;;19.80;100.00;96314.00;5114332;28;20035;-66
2023/08/26 01:37:38;;;;;;;9.13;8.30;;;;;;;19.79;100.00;96306.19;5106991;28;20028;-67
2023/08/26 01:40:06;;;;;;;10.00;9.13;;;;;;;19.78;100.00;96293.81;5111095;28;20016;-66
2023/08/26 01:42:32;;;;;;;9.93;8.95;;;;;;;19.76;100.00;96291.34;5096303;28;20408;-67
2023/08/26 01:44:58;;;;;;;10.18;9.02;;;;;;;19.65;100.00;96287.31;5107897;28;20030;-66
2023/08/26 01:47:24;;;;;;;9.85;8.98;;;;;;;19.58;100.00;96292.56;5082489;28;20119;-67
2023/08/26 01:49:49;;;;;;;11.07;9.63;;;;;;;19.55;100.00;96274.22;5093779;28;20066;-66
2023/08/26 01:52:14;;;;;;;10.77;9.70;;;;;;;19.55;100.00;96273.38;5111953;28;20045;-66
2023/08/26 01:54:40;;;;;;;10.23;9.30;;;;;;;19.53;100.00;96264.72;5095830;28;20120;-67
2023/08/26 01:57:05;;;;;;;9.98;8.50;;;;;;;19.50;100.00;96270.44;5104076;28;20400;-66
2023/08/26 01:59:31;;;;;;;9.98;9.07;;;;;;;19.43;100.00;96262.34;5095004;28;20462;-67
2023/08/26 02:01:56;;;;;;;10.25;9.35;;;;;;;19.36;100.00;96258.75;5095051;28;20040;-67
2023/08/26 02:04:22;;;;;;;9.85;8.85;;;;;;;19.33;100.00;96246.59;5103797;28;20032;-67
2023/08/26 02:06:47;;;;;;;9.13;8.00;;;;;;;19.30;100.00;96246.97;5095030;28;20028;-67
2023/08/26 02:09:12;;;;;;;8.10;7.40;;;;;;;19.21;100.00;96253.41;5098448;28;20038;-67
2023/08/26 02:11:38;;;;;;;8.73;7.82;;;;;;;19.18;100.00;96251.91;5076713;28;20035;-66
2023/08/26 02:14:03;;;;;;;8.43;7.63;;;;;;;19.12;100.00;96253.50;5107443;28;20102;-67
2023/08/26 02:16:29;;;;;;;8.88;8.07;;;;;;;19.02;100.00;96255.59;5107820;28;20024;-67
2023/08/26 02:18:54;;;;;;;8.98;8.13;;;;;;;18.95;100.00;96255.44;5093280;28;20020;-67
2023/08/26 02:21:19;;;;;;;8.45;7.75;;;;;;;18.87;100.00;96252.88;5093158;28;20040;-66
2023/08/26 02:23:45;;;;;;;8.00;7.38;;;;;;;18.82;100.00;96242.72;5104909;28;20057;-66
2023/08/26 02:26:10;;;;;;;7.47;6.78;;;;;;;18.75;100.00;96245.28;5117032;27;20800;-66
2023/08/26 02:28:36;;;;;;;7.82;7.22;;;;;;;18.70;100.00;96247.66;5106342;27;20016;-66
2023/08/26 02:31:02;;;;;;;8.13;7.40;;;;;;;18.71;100.00;96246.66;5105011;28;20535;-66
2023/08/26 02:33:28;;;;;;;8.27;7.60;;;;;;;18.61;100.00;96254.09;5119720;27;20015;-67
2023/08/26 02:35:54;;;;;;;10.32;9.10;;;;;;;18.63;100.00;96249.41;5105804;28;20028;-67
2023/08/26 02:38:19;;;;;;;11.32;9.48;;;;;;;18.67;100.00;96237.38;5097476;28;20193;-66
2023/08/26 02:40:54;;;;;;;8.90;8.20;;;;;;;18.66;100.00;96216.19;5092924;28;20020;-68
2023/08/26 02:43:21;;;;;;;9.05;8.20;;;;;;;18.54;100.00;96223.78;5096047;28;20028;-66
2023/08/26 02:45:50;;;;;;;9.70;8.82;;;;;;;18.48;100.00;96206.69;5106243;28;20055;-66
2023/08/26 02:48:16;;;;;;;10.48;9.32;;;;;;;18.54;100.00;96192.66;5094876;28;20036;-67
2023/08/26 02:50:41;;;;;;;11.32;9.90;;;;;;;18.56;100.00;96177.28;5095530;28;20032;-67
2023/08/26 02:53:06;;;;;;;11.98;10.85;;;;;;;18.56;100.00;96160.47;5100180;28;20007;-66
2023/08/26 02:55:32;;;;;;;11.60;10.52;;;;;;;18.54;100.00;96143.81;5104147;28;20077;-67
2023/08/26 02:57:57;;;;;;;10.68;9.65;;;;;;;18.56;100.00;96126.63;5095446;28;20031;-66
2023/08/26 03:00:22;;;;;;;10.77;9.25;;;;;;;18.57;100.00;96114.97;5097913;28;20012;-66
2023/08/26 03:02:48;;;;;;;10.43;8.77;;;;;;;18.54;100.00;96104.66;5097517;28;20020;-66
2023/08/26 03:05:13;;;;;;;9.32;8.45;;;;;;;18.59;100.00;96096.13;5093791;28;20020;-66
2023/08/26 03:07:39;;;;;;;9.13;8.02;;;;;;;18.60;100.00;96089.78;5102999;28;20028;-67
2023/08/26 03:10:05;;;;;;;10.63;9.73;;;;;;;18.52;100.00;96098.69;5100675;28;20064;-66
2023/08/26 03:12:30;;;;;;;10.15;8.35;;;;;;;18.48;100.00;96116.06;5094683;28;20004;-67
2023/08/26 03:14:55;;;;;;;9.35;8.50;;;;;;;18.41;100.00;96121.28;5093756;28;20024;-66
2023/08/26 03:17:21;;;;;;;8.68;7.97;;;;;;;18.31;100.00;96132.19;5105722;28;20019;-66
2023/08/26 03:19:46;;;;;;;9.80;7.70;;;;;;;18.35;100.00;96137.16;5105315;28;20796;-67
2023/08/26 03:22:12;;;;;;;9.15;8.38;;;;;;;18.29;100.00;96146.69;5101026;28;20020;-67
2023/08/26 03:24:38;;;;;;;9.13;7.90;;;;;;;18.28;100.00;96156.53;5094596;28;20072;-67
2023/08/26 03:27:04;;;;;;;9.02;8.20;;;;;;;18.24;100.00;96170.41;5098238;28;20020;-66
2023/08/26 03:29:29;;;;;;;9.45;8.48;;;;;;;18.20;100.00;96188.56;5103008;28;20048;-66
2023/08/26 03:31:54;;;;;;;9.50;8.55;;;;;;;18.14;100.00;96194.63;5095858;28;20013;-67
2023/08/26 03:34:20;;;;;;;9.95;8.55;;;;;;;18.09;100.00;96194.31;5104522;28;20028;-66
2023/08/26 03:36:45;;;;;;;9.27;8.35;;;;;;;18.13;100.00;96190.28;5093614;28;20030;-66
2023/08/26 03:39:11;;;;;;;9.23;7.93;;;;;;;18.15;100.00;96193.59;5083166;28;20027;-67
2023/08/26 03:41:36;;;;;;;11.10;9.05;;;;;;;18.20;100.00;96199.22;5098403;28;20047;-67
2023/08/26 03:44:04;;;;;;;12.60;8.32;;;;;;;18.17;100.00;96197.75;5092575;28;20028;-67
2023/08/26 03:46:29;;;;;;;9.10;8.20;;;;;;;18.14;100.00;96202.59;5107106;28;20078;-67
2023/08/26 03:48:55;;;;;;;9.20;8.43;;;;;;;18.03;100.00;96201.19;5093453;28;20467;-67
2023/08/26 03:51:20;;;;;;;11.57;8.68;;;;;;;18.01;100.00;96193.34;5106487;28;20080;-66
2023/08/26 03:53:46;;;;;;;8.48;7.70;;;;;;;18.04;100.00;96174.38;5104991;28;20600;-66
2023/08/26 03:56:13;;;;;;;8.70;7.90;;;;;;;18.06;100.00;96160.88;5101527;28;20023;-66
2023/08/26 03:58:39;;;;;;;8.07;7.28;;;;;;;18.03;100.00;96154.06;5102494;28;20031;-66
2023/08/26 04:01:04;;;;;;;8.95;7.80;;;;;;;18.03;100.00;96151.41;5102508;28;20024;-66
2023/08/26 04:03:30;;;;;;;10.65;9.55;;;;;;;17.99;100.00;96163.38;5097166;28;20207;-67
2023/08/26 04:05:59;;;;;;;9.25;7.97;;;;;;;17.99;100.00;96158.03;5097228;28;20028;-66
2023/08/26 04:08:25;;;;;;;9.10;8.30;;;;;;;17.97;100.00;96160.06;5108280;28;20035;-66
2023/08/26 04:10:58;;;;;;;9.18;8.27;;;;;;;17.97;100.00;96154.72;5097242;28;20024;-67
2023/08/26 04:13:28;;;;;;;9.25;8.18;;;;;;;17.98;100.00;96150.25;5095776;28;20012;-66
2023/08/26 04:15:57;;;;;;;9.30;8.50;;;;;;;17.88;100.00;96161.13;5097168;28;20491;-67
2023/08/26 04:18:23;;;;;;;9.88;9.07;;;;;;;17.80;100.00;96166.53;5095648;28;20024;-66
2023/08/26 04:20:49;;;;;;;9.10;8.27;;;;;;;17.79;100.00;96172.81;5096839;28;20129;-66
2023/08/26 04:23:15;;;;;;;9.70;8.80;;;;;;;17.75;100.00;96162.53;5106559;28;20052;-67
2023/08/26 04:25:41;;;;;;;9.55;8.77;;;;;;;17.75;100.00;96165.19;5101942;28;20113;-66
2023/08/26 04:28:07;;;;;;;9.52;8.70;;;;;;;17.72;100.00;96156.75;5118762;27;20031;-66
2023/08/26 04:30:33;;;;;;;9.85;9.05;;;;;;;17.69;100.00;96152.59;5096249;28;20532;-66
2023/08/26 04:33:00;;;;;;;9.93;8.93;;;;;;;17.73;100.00;96150.41;5108922;27;20678;-66
2023/08/26 04:35:26;;;;;;;9.25;8.05;;;;;;;17.74;100.00;96152.88;5107692;27;20549;-66
2023/08/26 04:37:52;;;;;;;9.25;8.20;;;;;;;17.69;100.00;96144.59;5102417;28;20035;-67
2023/08/26 04:40:18;;;;;;;10.02;8.98;;;;;;;17.50;100.00;96143.22;5110969;28;20023;-66
2023/08/26 04:42:44;;;;;;;8.73;7.93;;;;;;;17.47;100.00;96143.56;5098305;28;20445;-66
2023/08/26 04:45:09;;;;;;;10.05;9.15;;;;;;;17.52;100.00;96140.38;5096755;28;20063;-66
2023/08/26 04:47:36;;;;;;;10.27;8.77;;;;;;;17.47;100.00;96144.38;5102559;28;20015;-66
2023/08/26 04:50:03;;;;;;;9.65;8.75;;;;;;;17.43;100.00;96136.91;5095576;28;20023;-66
2023/08/26 04:52:29;;;;;;;9.73;8.93;;;;;;;17.39;100.00;96124.97;5100688;28;20016;-66
2023/08/26 04:54:54;;;;;;;9.80;8.82;;;;;;;17.35;100.00;96124.47;5095555;28;20026;-66
2023/08/26 04:57:19;;;;;;;10.52;9.10;;;;;;;17.30;100.00;96105.53;5108129;28;20043;-66
2023/08/26 04:59:45;;;;;;;11.32;9.30;;;;;;;17.31;100.00;96094.75;5111294;28;20020;-66
2023/08/26 05:02:10;;;;;;;9.38;8.52;;;;;;;17.39;100.00;96082.38;5097385;28;20421;-66
2023/08/26 05:04:37;;;;;;;9.60;8.80;;;;;;;17.38;100.00;96084.22;5097613;28;20058;-66
2023/08/26 05:07:03;;;;;;;9.77;8.95;;;;;;;17.37;100.00;96081.72;5094336;28;20058;-66
2023/08/26 05:09:28;;;;;;;10.35;9.35;;;;;;;17.47;100.00;96069.84;5094224;28;20114;-66
2023/08/26 05:11:57;;;;;;;12.48;9.80;;;;;;;17.52;100.00;96069.34;5100810;28;20024;-66
2023/08/26 05:14:22;;;;;;;9.43;8.70;;;;;;;17.51;100.00;96070.34;5100529;28;20236;-66
2023/08/26 05:16:48;;;;;;;12.82;8.80;;;;;;;17.50;100.00;96073.16;5102933;28;20023;-66
2023/08/26 05:19:13;;;;;;;10.02;9.02;;;;;;;17.43;100.00;96076.53;5103913;28;20523;-66
2023/08/26 05:21:38;;;;;;;10.95;9.70;;;;;;;17.45;100.00;96092.31;5098380;28;20059;-67
2023/08/26 05:24:05;;;;;;;10.00;8.55;;;;;;;17.47;100.00;96095.66;5079853;28;20024;-66
2023/08/26 05:26:31;;;;;;;9.98;9.07;;;;;;;17.44;100.00;96099.50;5107623;27;20015;-66
2023/08/26 05:28:56;;;;;;;8.88;8.05;;;;;;;17.46;100.00;96102.81;5104014;27;20053;-66
2023/08/26 05:31:22;;;;;;;9.27;8.38;;;;;;;17.49;100.00;96108.78;5094699;28;20032;-66
2023/08/26 05:33:47;;;;;;;9.38;8.50;;;;;;;17.55;100.00;96113.38;5120508;27;20030;-66
2023/08/26 05:36:12;;;;;;;10.20;9.20;;;;;;;17.53;100.00;96110.06;5098627;28;20015;-66
2023/08/26 05:38:38;;;;;;;9.10;8.40;;;;;;;17.43;100.00;96112.97;5078181;28;20035;-66
2023/08/26 05:41:03;;;;;;;12.73;9.75;;;;;;;17.41;100.00;96120.28;5096600;28;20032;-66
2023/08/26 05:43:30;;;;;;;9.57;8.63;;;;;;;17.41;100.00;96109.66;5078460;28;20036;-67
2023/08/26 05:45:58;;;;;;;10.30;9.40;;;;;;;17.52;100.00;96087.97;5095194;28;20110;-66
2023/08/26 05:48:24;;;;;;;9.82;8.82;;;;;;;17.57;100.00;96084.75;5096860;28;20024;-67
2023/08/26 05:50:49;;;;;;;10.45;9.43;;;;;;;17.57;100.00;96080.28;5095297;28;20054;-67
2023/08/26 05:53:14;;;;;;;9.85;8.85;;;;;;;17.65;100.00;96089.22;5095192;28;20028;-66
2023/08/26 05:55:44;;;;;;;9.90;8.90;;;;;;;17.66;100.00;96093.53;5095437;28;20481;-66
2023/08/26 05:58:09;;;;;;;9.85;9.02;;;;;;;17.68;100.00;96086.19;5095086;28;20582;-66
2023/08/26 06:00:35;;;;;;;11.07;9.18;;;;;;;17.76;100.00;96075.50;5099031;28;20107;-66
2023/08/26 06:03:01;;;;;;;10.25;9.35;;;;;;;17.85;100.00;96070.94;5104985;28;20044;-67
2023/08/26 06:05:27;;;;;;;10.50;9.30;;;;;;;17.91;100.00;96070.22;5095652;28;20031;-66
2023/08/26 06:07:53;;;;;;;9.88;9.02;;;;;;;17.97;100.00;96074.81;5095178;28;20024;-67
2023/08/26 06:10:18;;;;;;;9.38;8.48;;;;;;;18.01;100.00;96062.81;5099818;28;20031;-66
2023/08/26 06:12:44;;;;;;;9.65;8.77;;;;;;;18.04;100.00;96065.16;5098101;28;20026;-67
2023/08/26 06:15:10;;;;;;;9.50;8.60;;;;;;;18.09;100.00;96077.09;5102776;27;20171;-67
2023/08/26 06:17:35;;;;;;;9.68;8.77;;;;;;;18.11;100.00;96085.75;5105966;28;20043;-67
2023/08/26 06:20:03;;;;;;;9.35;8.55;;;;;;;18.14;100.00;96086.22;5097558;28;20059;-66
2023/08/26 06:22:29;;;;;;;9.48;8.70;;;;;;;18.26;100.00;96083.09;5096717;28;20031;-66
2023/08/26 06:24:55;;;;;;;9.45;8.65;;;;;;;18.46;100.00;96073.59;5094240;28;20038;-66
2023/08/26 06:27:20;;;;;;;9.50;8.55;;;;;;;18.70;100.00;96071.66;5094337;28;20038;-66
2023/08/26 06:29:52;;;;;;;8.77;7.78;;;;;;;18.85;100.00;96094.84;5094477;28;20048;-66
2023/08/26 06:32:18;;;;;;;9.27;8.57;;;;;;;19.01;100.00;96120.53;5104813;28;20020;-67
2023/08/26 06:34:44;;;;;;;10.18;8.93;;;;;;;19.14;100.00;96142.06;5106005;27;20081;-66
2023/08/26 06:37:09;;;;;;;11.23;7.95;;;;;;;19.46;100.00;96166.69;5094247;28;20028;-66
2023/08/26 06:39:35;;;;;;;9.40;8.60;;;;;;;19.59;100.00;96199.94;5093198;28;20019;-67
2023/08/26 06:42:00;;;;;;;9.65;8.27;;;;;;;19.60;100.00;96231.75;5101135;28;20027;-67
2023/08/26 06:44:26;;;;;;;8.70;7.80;;;;;;;19.66;100.00;96275.59;5094207;28;20035;-66
2023/08/26 06:46:51;;;;;;;14.68;8.25;;;;;;;19.60;100.00;96325.25;5094388;28;20400;-67
2023/08/26 06:49:16;;;;;;;8.52;7.78;;;;;;;19.57;100.00;96340.81;5106758;28;20401;-66
2023/08/26 06:51:42;;;;;;;8.52;7.75;;;;;;;19.53;100.00;96367.03;5094121;28;20024;-67
2023/08/26 06:54:07;;;;;;;8.68;7.78;;;;;;;19.53;100.00;96382.22;5092758;28;20024;-67
2023/08/26 06:56:33;;;;;;;8.68;7.80;;;;;;;19.55;100.00;96388.22;5094214;28;20027;-67
2023/08/26 06:58:58;;;;;;;8.18;7.55;;;;;;;19.61;100.00;96387.50;5094374;28;20051;-67
2023/08/26 07:01:23;;;;;;;8.32;7.63;;;;;;;19.72;100.00;96384.38;5094063;28;20393;-67
2023/08/26 07:03:49;;;;;;;9.10;8.30;;;;;;;19.86;100.00;96396.06;5093671;28;20454;-67
2023/08/26 07:06:14;;;;;;;8.68;7.88;;;;;;;20.00;100.00;96410.47;5094083;28;20503;-67
2023/08/26 07:08:40;;;;;;;9.27;7.45;;;;;;;20.21;100.00;96416.94;5103245;28;20028;-67
2023/08/26 07:11:05;;;;;;;8.18;7.45;;;;;;;20.23;100.00;96420.28;5105767;28;20552;-67
2023/08/26 07:13:30;;;;;;;8.07;7.28;;;;;;;20.16;100.00;96424.69;5099785;28;20016;-66
2023/08/26 07:15:56;;;;;;;8.50;7.75;;;;;;;20.06;100.00;96408.91;5102014;28;20031;-67
2023/08/26 07:18:21;;;;;;;8.30;7.60;;;;;;;20.03;100.00;96399.44;5093470;28;20154;-67
2023/08/26 07:20:46;;;;;;;10.02;6.75;;;;;;;19.96;100.00;96395.84;5096427;28;20077;-67
2023/08/26 07:23:12;;;;;;;8.80;7.07;;;;;;;19.84;100.00;96386.59;5093945;28;20032;-67
2023/08/26 07:25:37;;;;;;;7.22;6.68;;;;;;;19.79;100.00;96386.34;5096568;28;20031;-66
2023/08/26 07:28:03;;;;;;;7.30;6.68;;;;;;;19.73;100.00;96380.69;5103666;28;20032;-66
2023/08/26 07:30:29;;;;;;;7.75;7.05;;;;;;;19.75;100.00;96396.53;5105389;28;20048;-67
2023/08/26 07:32:55;;;;;;;11.38;6.53;;;;;;;19.81;100.00;96411.03;5097282;28;20109;-68
2023/08/26 07:35:20;;;;;;;8.02;6.72;;;;;;;19.84;100.00;96440.03;5110185;28;20031;-67
2023/08/26 07:37:46;;;;;;;7.60;6.72;;;;;;;19.92;100.00;96456.00;5106650;28;20024;-66
2023/08/26 07:40:15;;;;;;;10.95;7.00;;;;;;;19.89;100.00;96454.50;5097443;28;20028;-67
2023/08/26 07:42:42;;;;;;;7.38;6.65;;;;;;;19.83;100.00;96446.41;5107475;28;20024;-67
2023/08/26 07:45:08;;;;;;;6.82;6.22;;;;;;;19.83;100.00;96436.53;5096459;28;20039;-66
2023/08/26 07:47:33;;;;;;;8.68;6.50;;;;;;;19.82;100.00;96434.03;5106574;28;20032;-66
2023/08/26 07:49:59;;;;;;;7.07;5.85;;;;;;;19.90;100.00;96431.28;5107514;28;20793;-67
2023/08/26 07:52:24;;;;;;;6.35;5.72;;;;;;;19.90;100.00;96440.16;5096193;28;20110;-67
2023/08/26 07:54:49;;;;;;;13.07;6.32;;;;;;;19.73;100.00;96435.97;5096276;28;20024;-67
2023/08/26 07:57:15;;;;;;;12.52;6.53;;;;;;;19.61;100.00;96420.38;5095526;28;20173;-67
2023/08/26 07:59:40;;;;;;;9.73;6.13;;;;;;;19.62;100.00;96418.53;5096855;28;20086;-66
2023/08/26 08:02:05;;;;;;;7.22;6.53;;;;;;;19.60;100.00;96418.72;5105770;28;20035;-67
2023/08/26 08:04:31;;;;;;;7.65;6.75;;;;;;;19.67;100.00;96409.97;5100371;28;20027;-67
2023/08/26 08:06:56;;;;;;;8.20;6.35;;;;;;;19.69;100.00;96408.78;5102093;28;20055;-67
2023/08/26 08:09:22;;;;;;;7.70;6.70;;;;;;;19.79;100.00;96429.88;5109960;28;20513;-67
2023/08/26 08:11:47;;;;;;;7.13;6.40;;;;;;;19.84;100.00;96438.19;5096812;28;20024;-68
2023/08/26 08:14:13;;;;;;;7.93;6.32;;;;;;;19.85;100.00;96439.84;5094228;28;20564;-70
2023/08/26 08:16:38;;;;;;;7.63;6.18;;;;;;;19.89;100.00;96430.47;5099410;28;20028;-70
2023/08/26 08:19:04;;;;;;;7.38;5.85;;;;;;;19.91;100.00;96432.97;5100122;28;20084;-70
2023/08/26 08:21:29;;;;;;;6.40;5.75;;;;;;;19.84;100.00;96446.19;5100865;28;20035;-70
2023/08/26 08:23:54;;;;;;;9.90;5.93;;;;;;;19.85;100.00;96455.06;5101190;28;20085;-71
2023/08/26 08:26:20;;;;;;;7.32;5.85;;;;;;;19.76;100.00;96456.97;5099131;27;20024;-72
2023/08/26 08:28:45;;;;;;;7.78;6.07;;;;;;;19.68;100.00;96459.72;5105291;28;20042;-71
2023/08/26 08:31:11;;;;;;;8.75;6.88;;;;;;;19.61;100.00;96492.47;5096723;28;20044;-73
2023/08/26 08:33:37;;;;;;;9.25;6.68;;;;;;;19.57;100.00;96514.41;5108649;27;20092;-71
2023/08/26 08:36:03;;;;;;;9.30;6.60;;;;;;;19.55;100.00;96541.28;5102799;28;20026;-71
2023/08/26 08:38:29;;;;;;;7.18;6.45;;;;;;;19.58;100.00;96561.47;5095914;28;20016;-71
2023/08/26 08:40:55;;;;;;;8.02;6.78;;;;;;;19.45;100.00;96562.03;5097543;28;20023;-70
2023/08/26 08:43:21;;;;;;;8.48;7.07;;;;;;;19.30;100.00;96559.28;5099703;28;20030;-72
2023/08/26 08:45:49;;;;;;;7.63;6.53;;;;;;;19.16;100.00;96559.03;5100514;28;20825;-72
2023/08/26 08:48:16;;;;;;;10.65;7.10;;;;;;;19.13;100.00;96540.72;5098598;28;20023;-72
2023/08/26 08:50:42;;;;;;;9.40;7.43;;;;;;;19.05;100.00;96554.06;5101037;28;20027;-71
2023/08/26 08:53:11;;;;;;;11.38;8.23;;;;;;;19.03;100.00;96532.06;5099799;28;20031;-69
2023/08/26 08:55:37;;;;;;;11.25;7.85;;;;;;;18.95;100.00;96545.44;5099132;28;20027;-70
2023/08/26 08:58:03;;;;;;;9.45;8.07;;;;;;;18.95;100.00;96561.44;5100050;28;20027;-73
2023/08/26 09:00:30;;;;;;;10.60;7.20;;;;;;;19.06;100.00;96568.25;5111972;28;20019;-71
2023/08/26 09:02:58;;;;;;;8.63;7.80;;;;;;;19.10;100.00;96570.38;5098984;28;20020;-71
2023/08/26 09:05:24;;;;;;;8.27;7.47;;;;;;;19.11;100.00;96552.56;5113273;28;20019;-72
2023/08/26 09:07:51;;;;;;;9.30;7.40;;;;;;;19.13;100.00;96539.88;5105403;28;20742;-73
2023/08/26 09:10:17;;;;;;;8.80;7.38;;;;;;;19.13;100.00;96538.03;5103242;28;20038;-74
2023/08/26 09:12:43;;;;;;;10.00;7.72;;;;;;;19.10;100.00;96508.19;5113287;28;20062;-74
2023/08/26 09:15:08;;;;;;;8.88;7.97;;;;;;;19.01;100.00;96480.72;5096020;28;20484;-73
2023/08/26 09:17:34;;;;;;;9.45;7.35;;;;;;;18.83;100.00;96473.78;5097007;28;20055;-71
2023/08/26 09:20:01;;;;;;;12.32;7.90;;;;;;;18.82;100.00;96468.63;5094274;28;20034;-69
2023/08/26 09:22:30;;;;;;;8.38;7.57;;;;;;;18.92;100.00;96473.75;5095446;28;20124;-70
2023/08/26 09:25:03;;;;;;;8.13;7.30;;;;;;;18.92;100.00;96441.75;5109195;28;20073;-70
2023/08/26 09:27:33;;;;;;;7.95;7.25;;;;;;;18.89;100.00;96435.72;5112290;27;20028;-70
2023/08/26 09:29:58;;;;;;;10.60;8.55;;;;;;;18.87;100.00;96421.72;5080781;28;20086;-71
2023/08/26 09:32:38;;;;;;;10.93;8.55;;;;;;;18.80;100.00;96364.78;5099392;27;20023;-70
2023/08/26 09:35:14;;;;;;;10.85;8.57;;;;;;;18.80;100.00;96310.63;5104088;27;20036;-70
2023/08/26 09:37:41;;;;;;;11.25;9.13;;;;;;;18.84;100.00;96295.91;5102104;28;20039;-70
2023/08/26 09:40:12;;;;;;;10.25;9.10;;;;;;;18.93;100.00;96264.66;5103586;28;20036;-70
2023/08/26 09:42:39;;;;;;;10.40;7.93;;;;;;;18.99;100.00;96219.41;5094796;28;20507;-70
2023/08/26 09:45:09;;;;;;;8.82;7.93;;;;;;;19.16;100.00;96195.25;5101390;28;20054;-69
2023/08/26 09:47:36;;;;;;;8.57;7.65;;;;;;;19.30;100.00;96186.41;5095317;28;20081;-69
2023/08/26 09:50:03;;;;;;;7.95;7.25;;;;;;;19.25;100.00;96161.28;5105226;28;20039;-69
2023/08/26 09:52:29;;;;;;;6.90;6.25;;;;;;;19.28;100.00;96155.56;5095171;28;20024;-70
2023/08/26 09:54:55;;;;;;;8.75;6.93;;;;;;;19.12;100.00;96199.28;5097101;28;20035;-70
2023/08/26 09:57:21;;;;;;;8.05;4.88;;;;;;;19.10;100.00;96194.13;5105610;28;20016;-69
2023/08/26 09:59:47;;;;;;;9.63;5.68;;;;;;;18.96;100.00;96181.59;5095867;28;20032;-71
2023/08/26 10:02:22;;;;;;;10.18;6.95;;;;;;;18.92;100.00;96182.97;5104840;28;20039;-71
2023/08/26 10:04:56;;;;;;;11.40;8.07;;;;;;;18.82;100.00;96200.06;5103418;28;20028;-71
2023/08/26 10:07:23;;;;;;;8.55;6.63;;;;;;;18.73;100.00;96180.63;5097949;28;20059;-71
2023/08/26 10:09:57;;;;;;;8.75;6.13;;;;;;;18.72;100.00;96170.97;5094272;28;20084;-71
2023/08/26 10:12:30;;;;;;;8.45;5.00;;;;;;;18.78;100.00;96185.44;5094942;28;20031;-69
2023/08/26 10:14:58;;;;;;;6.20;4.65;;;;;;;18.78;100.00;96196.09;5094681;28;20028;-70
2023/08/26 10:17:25;;;;;;;7.20;5.50;;;;;;;18.79;100.00;96219.09;5094295;28;20098;-70
2023/08/26 10:19:52;;;;;;;10.32;6.20;;;;;;;18.76;100.00;96262.13;5103219;28;20032;-70
2023/08/26 10:22:17;;;;;;;11.02;7.07;;;;;;;18.76;100.00;96300.28;5094295;28;20683;-69
2023/08/26 10:24:45;;;;;;;9.63;6.95;;;;;;;18.74;100.00;96312.16;5109114;28;20130;-69
2023/08/26 10:27:10;;;;;;;10.70;8.15;;;;;;;18.65;100.00;96327.38;5114997;27;20020;-69
2023/08/26 10:29:37;;;;;;;9.27;7.75;;;;;;;18.67;100.00;96359.19;5100981;28;20656;-70
2023/08/26 10:32:22;;;;;;;15.27;6.95;;;;;;;18.61;100.00;96384.75;5106347;28;20081;-71
2023/08/26 10:34:51;;;;;;;;;;;;;;;18.57;100.00;96410.91;5105384;28;20031;-72
2023/08/26 10:37:17;;;;;;;7.18;6.00;;;;;;;18.50;100.00;96415.28;5099367;28;19911;-72
2023/08/26 10:39:42;;;;;;;6.00;5.40;;;;;;;18.53;100.00;96408.75;5092897;28;20049;-72
2023/08/26 10:42:12;;;;;;;7.70;5.57;;;;;;;18.51;100.00;96400.09;5094448;28;20031;-72
2023/08/26 10:44:40;;;;;;;10.50;6.10;;;;;;;18.61;100.00;96380.22;5101941;28;20443;-71
2023/08/26 10:47:06;;;;;;;6.65;5.80;;;;;;;18.58;100.00;96388.56;5099801;28;20043;-71
2023/08/26 10:49:31;;;;;;;7.43;5.63;;;;;;;18.55;100.00;96385.41;5101790;28;20091;-70
2023/08/26 10:52:16;;;;;;;8.82;5.07;;;;;;;18.52;100.00;96378.63;5107247;28;20451;-72
2023/08/26 10:54:43;;;;;;;6.60;4.57;;;;;;;18.50;100.00;96375.31;5096041;28;20453;-70
2023/08/26 10:57:09;;;;;;;5.40;3.92;;;;;;;18.48;100.00;96345.31;5107432;28;20030;-67
2023/08/26 10:59:36;;;;;;;9.25;4.72;;;;;;;18.46;100.00;96331.34;5112842;28;20685;-69
2023/08/26 11:02:11;;;;;;;9.30;4.22;;;;;;;18.42;100.00;96328.19;5096689;28;20039;-68
2023/08/26 11:04:43;;;;;;;;;;;;;;;18.37;100.00;96322.56;5107079;28;20019;-68
2023/08/26 11:07:18;;;;;;;8.43;4.20;;;;;;;18.23;100.00;96331.28;5093814;28;19908;-68
2023/08/26 11:09:45;;;;;;;8.98;4.15;;;;;;;18.20;100.00;96334.31;5094158;28;20019;-68
2023/08/26 11:12:29;;;;;;;8.63;3.95;;;;;;;18.20;100.00;96332.47;5094455;28;20036;-68
2023/08/26 11:15:05;;;;;;;8.40;4.03;;;;;;;18.24;100.00;96323.13;5096342;28;20106;-69
2023/08/26 11:17:32;;;;;;;8.77;3.83;;;;;;;18.20;100.00;96318.31;5107114;28;20016;-68
2023/08/26 11:19:57;;;;;;;5.07;4.28;;;;;;;18.16;100.00;96313.34;5102282;28;20016;-69
2023/08/26 11:22:26;;;;;;;6.57;3.50;;;;;;;18.11;100.00;96304.22;5105698;28;20077;-69